Time;durP1;ratioP1;P1;durP2;ratioP2;P2;SDS_P1;SDS_P2;PMS_P1;PMS_P2;Temp;Humidity;BMP_temperature;BMP_pressure;BME280_temperature;BME280_humidity;BME280_pressure;Samples;Min_cycle;Max_cycle;Signal;HPM_P1;HPM_P2
2023/12/06 00:01:56;;;;;;;0.30;0.30;;;;;;;5.27;51.29;101270.94;5008811;28;20475;-87
2023/12/06 00:04:23;;;;;;;0.50;0.50;;;;;;;5.20;51.35;101257.44;5009894;28;20776;-88
2023/12/06 00:06:48;;;;;;;0.52;0.52;;;;;;;5.26;51.47;101264.84;5010362;28;20879;-90
2023/12/06 00:09:15;;;;;;;0.20;0.20;;;;;;;5.35;51.37;101263.28;5026960;28;20404;-91
2023/12/06 00:11:40;;;;;;;0.20;0.20;;;;;;;5.35;50.88;101250.16;5011222;28;20391;-92
2023/12/06 00:14:06;;;;;;;0.15;0.15;;;;;;;5.41;51.35;101254.06;5010977;28;20451;-91
2023/12/06 00:16:35;;;;;;;0.70;0.70;;;;;;;5.46;51.25;101257.16;5010843;28;20398;-90
2023/12/06 00:19:00;;;;;;;1.10;1.00;;;;;;;5.48;50.92;101250.00;5011503;28;20445;-89
2023/12/06 00:21:26;;;;;;;0.23;0.23;;;;;;;5.47;51.27;101245.69;5010401;28;20380;-88
2023/12/06 00:23:55;;;;;;;1.38;1.00;;;;;;;5.53;50.93;101253.91;5010395;28;20399;-91
2023/12/06 00:26:21;;;;;;;0.70;0.70;;;;;;;5.54;50.75;101246.84;5012798;28;20407;-95
2023/12/06 00:28:47;;;;;;;0.22;0.22;;;;;;;5.52;50.94;101246.16;5012913;28;20803;-89
2023/12/06 00:31:13;;;;;;;1.15;0.60;;;;;;;5.53;50.93;101248.66;5010237;28;20914;-88
2023/12/06 00:33:39;;;;;;;0.50;0.50;;;;;;;5.58;51.00;101239.56;5009890;28;20392;-87
2023/12/06 00:36:05;;;;;;;0.20;0.20;;;;;;;5.58;50.93;101243.00;5009926;28;20396;-87
2023/12/06 00:38:31;;;;;;;0.40;0.40;;;;;;;5.61;50.72;101252.47;5010033;28;20403;-88
2023/12/06 00:40:59;;;;;;;0.30;0.30;;;;;;;5.57;50.98;101245.78;5010199;28;20385;-91
2023/12/06 00:43:25;;;;;;;1.42;0.70;;;;;;;5.55;50.76;101251.16;5028683;22;20458;-91
2023/12/06 00:45:50;;;;;;;0.50;0.50;;;;;;;5.59;51.20;101246.50;5018374;28;20767;-88
2023/12/06 00:48:16;;;;;;;0.57;0.57;;;;;;;5.63;50.90;101242.66;4991848;28;20495;-89
2023/12/06 00:50:43;;;;;;;0.10;0.10;;;;;;;5.65;50.70;101243.34;4991442;28;20415;-89
2023/12/06 00:53:08;;;;;;;1.08;0.98;;;;;;;5.65;50.68;101243.34;4995135;28;20403;-90
2023/12/06 00:55:34;;;;;;;0.20;0.20;;;;;;;5.62;50.77;101235.69;5011352;28;20384;-86
2023/12/06 00:58:00;;;;;;;0.30;0.30;;;;;;;5.62;50.74;101235.69;5013289;28;20437;-88
2023/12/06 01:00:25;;;;;;;0.50;0.30;;;;;;;5.62;50.80;101239.19;5029710;28;20924;-89
2023/12/06 01:02:51;;;;;;;0.30;0.30;;;;;;;5.64;50.89;101229.38;5014149;28;20469;-90
2023/12/06 01:05:17;;;;;;;0.70;0.70;;;;;;;5.64;51.11;101231.19;5031922;28;20777;-90
2023/12/06 01:07:45;;;;;;;0.93;0.83;;;;;;;5.63;50.84;101230.31;5013812;28;20398;-91
2023/12/06 01:10:12;;;;;;;0.30;0.30;;;;;;;5.68;50.86;101235.22;5031167;28;20488;-89
2023/12/06 01:12:40;;;;;;;0.40;0.40;;;;;;;5.68;50.88;101238.69;5013930;28;20410;-88
2023/12/06 01:15:06;;;;;;;0.30;0.30;;;;;;;5.61;50.85;101223.53;5022348;28;20447;-85
2023/12/06 01:17:32;;;;;;;0.50;0.50;;;;;;;5.60;50.53;101221.84;5038512;28;20830;-89
2023/12/06 01:19:58;;;;;;;0.35;0.35;;;;;;;5.50;50.90;101217.34;5012405;28;20383;-88
2023/12/06 01:22:24;;;;;;;0.20;0.20;;;;;;;5.38;51.24;101213.06;5030524;28;20948;-88
2023/12/06 01:24:50;;;;;;;0.63;0.63;;;;;;;5.24;51.41;101211.56;5030732;28;20414;-89
2023/12/06 01:27:15;;;;;;;0.80;0.70;;;;;;;5.23;51.61;101211.69;5017287;28;20469;-89
2023/12/06 01:29:41;;;;;;;2.60;0.80;;;;;;;5.20;51.67;101204.03;5033786;28;20406;-89
2023/12/06 01:32:06;;;;;;;1.20;0.90;;;;;;;5.20;51.47;101207.50;5034463;28;20812;-89
2023/12/06 01:34:32;;;;;;;0.40;0.40;;;;;;;5.13;51.94;101207.19;5034447;28;20378;-89
2023/12/06 01:36:57;;;;;;;0.80;0.80;;;;;;;5.13;51.72;101194.03;5016737;28;20806;-88
2023/12/06 01:39:23;;;;;;;0.50;0.50;;;;;;;4.95;51.93;101188.44;5033627;28;20394;-87
2023/12/06 01:41:50;;;;;;;0.63;0.63;;;;;;;4.98;52.40;101203.13;5031343;28;20808;-89
2023/12/06 01:44:16;;;;;;;1.02;0.63;;;;;;;4.99;52.36;101202.19;5014706;28;20464;-89
2023/12/06 01:46:42;;;;;;;0.40;0.40;;;;;;;4.97;52.46;101197.03;5014599;28;20433;-88
2023/12/06 01:49:10;;;;;;;0.45;0.45;;;;;;;4.96;52.58;101192.72;5030440;28;20900;-89
2023/12/06 01:51:37;;;;;;;0.50;0.50;;;;;;;5.09;52.26;101187.34;5014238;28;20390;-88
2023/12/06 01:54:03;;;;;;;0.20;0.20;;;;;;;5.08;52.41;101190.09;5013771;28;20845;-89
2023/12/06 01:56:31;;;;;;;0.30;0.30;;;;;;;5.15;52.40;101183.41;5014432;28;20408;-88
2023/12/06 01:58:59;;;;;;;1.65;1.30;;;;;;;5.10;52.42;101189.00;5013256;28;20401;-89
2023/12/06 02:01:25;;;;;;;0.20;0.20;;;;;;;5.12;52.54;101191.53;5030523;28;20489;-87
2023/12/06 02:03:50;;;;;;;0.50;0.50;;;;;;;5.10;52.30;101189.00;5031294;28;21031;-90
2023/12/06 02:06:16;;;;;;;0.28;0.28;;;;;;;5.17;52.16;101195.44;5034007;28;20382;-90
2023/12/06 02:08:44;;;;;;;0.40;0.20;;;;;;;5.28;52.32;101193.75;5032690;28;20407;-89
2023/12/06 02:11:09;;;;;;;0.60;0.60;;;;;;;5.31;51.98;101194.34;5016481;28;20893;-91
2023/12/06 02:13:35;;;;;;;0.77;0.77;;;;;;;5.20;52.17;101183.00;5016376;28;20382;-90
2023/12/06 02:16:02;;;;;;;0.20;0.20;;;;;;;5.27;52.43;101195.53;5016144;28;20378;-89
2023/12/06 02:18:28;;;;;;;0.70;0.70;;;;;;;5.36;51.81;101186.06;5015858;28;20398;-89
2023/12/06 02:20:56;;;;;;;0.20;0.20;;;;;;;5.35;51.80;101173.91;5023221;28;20452;-87
2023/12/06 02:23:29;;;;;;;0.40;0.40;;;;;;;5.41;52.19;101183.09;5034437;28;20413;-88
2023/12/06 02:25:55;;;;;;;0.88;0.85;;;;;;;5.33;52.19;101183.69;5048274;28;20381;-88
2023/12/06 02:28:20;;;;;;;0.97;0.97;;;;;;;5.27;52.45;101174.50;5044768;28;20403;-87
2023/12/06 02:30:46;;;;;;;0.50;0.50;;;;;;;5.41;52.27;101180.47;5016091;28;20388;-88
2023/12/06 02:33:11;;;;;;;0.27;0.27;;;;;;;5.43;51.93;101168.00;5015912;28;20765;-91
2023/12/06 02:35:46;;;;;;;0.30;0.30;;;;;;;5.43;52.14;101160.13;5032468;28;20493;-90
2023/12/06 02:38:16;;;;;;;0.63;0.63;;;;;;;5.43;52.00;101168.84;5015306;28;20464;-91
2023/12/06 02:40:43;;;;;;;0.50;0.50;;;;;;;5.32;52.33;101155.75;5031928;28;20408;-91
2023/12/06 02:43:09;;;;;;;0.25;0.25;;;;;;;5.29;52.17;101171.75;4993233;28;20434;-89
2023/12/06 02:45:35;;;;;;;0.52;0.52;;;;;;;5.26;52.71;101167.59;4980403;28;20390;-91
2023/12/06 02:48:03;;;;;;;0.30;0.30;;;;;;;5.35;52.37;101166.84;4989871;28;20479;-91
2023/12/06 02:50:29;;;;;;;0.80;0.80;;;;;;;5.29;52.41;101169.13;4989579;28;21114;-91
2023/12/06 02:52:55;;;;;;;0.60;0.60;;;;;;;5.35;52.63;101169.47;4991385;28;20481;-92
2023/12/06 02:55:20;;;;;;;0.20;0.20;;;;;;;5.44;52.13;101170.53;4992048;28;20390;-92
2023/12/06 02:57:46;;;;;;;0.30;0.30;;;;;;;5.44;52.44;101170.53;4982895;28;20425;-92
2023/12/06 03:00:12;;;;;;;0.50;0.50;;;;;;;5.40;52.58;101160.38;5012341;28;20779;-92
2023/12/06 03:02:37;;;;;;;0.40;0.30;;;;;;;5.51;52.00;101176.09;5017388;28;20398;-94
2023/12/06 03:05:03;;;;;;;1.05;1.00;;;;;;;5.51;52.36;101161.19;5003530;28;20848;-94
2023/12/06 03:07:29;;;;;;;0.30;0.30;;;;;;;5.45;52.29;101156.41;4993000;28;20397;-93
2023/12/06 03:09:56;;;;;;;0.77;0.70;;;;;;;5.43;52.18;101160.97;4993712;28;20413;-94
2023/12/06 03:12:21;;;;;;;0.47;0.47;;;;;;;5.53;52.43;101167.13;4995139;28;20398;-93
2023/12/06 03:14:47;;;;;;;0.30;0.30;;;;;;;5.44;52.33;101149.50;4992205;28;20477;-90
2023/12/06 03:17:13;;;;;;;1.98;1.85;;;;;;;5.45;52.08;101139.81;4975888;28;20497;-90
2023/12/06 03:19:38;;;;;;;3.40;1.10;;;;;;;5.47;52.60;101145.75;4993532;28;20421;-91
2023/12/06 03:22:04;;;;;;;1.05;1.05;;;;;;;5.45;53.05;101156.41;5052522;28;20421;-87
2023/12/06 03:24:30;;;;;;;0.30;0.30;;;;;;;5.45;52.77;101145.88;5044494;28;20901;-91
2023/12/06 03:26:55;;;;;;;0.80;0.80;;;;;;;5.46;52.44;101142.31;5034335;28;20471;-91
2023/12/06 03:29:21;;;;;;;0.60;0.60;;;;;;;5.45;53.02;101142.44;5016907;28;20411;-91
2023/12/06 03:31:47;;;;;;;0.40;0.40;;;;;;;5.40;53.25;101134.91;5035384;28;20453;-90
2023/12/06 03:34:12;;;;;;;0.53;0.43;;;;;;;5.20;53.77;101148.84;5033995;28;20375;-91
2023/12/06 03:36:38;;;;;;;0.50;0.50;;;;;;;5.19;53.79;101145.41;5021723;28;20474;-90
2023/12/06 03:39:04;;;;;;;0.73;0.73;;;;;;;5.24;53.81;101147.63;5038279;28;20374;-88
2023/12/06 03:41:30;;;;;;;1.60;1.48;;;;;;;5.26;53.75;101143.94;5025967;28;20410;-88
2023/12/06 03:43:57;;;;;;;1.60;1.50;;;;;;;5.28;53.75;101147.28;5038269;28;20493;-89
2023/12/06 03:46:22;;;;;;;2.33;0.90;;;;;;;5.41;53.79;101148.91;5038710;28;20410;-89
2023/12/06 03:48:48;;;;;;;1.10;0.90;;;;;;;5.52;53.37;101151.47;5056431;28;20402;-89
2023/12/06 03:51:13;;;;;;;0.20;0.20;;;;;;;5.59;53.34;101146.56;5051411;28;20398;-89
2023/12/06 03:53:39;;;;;;;0.40;0.40;;;;;;;5.58;53.25;101145.72;5019644;28;20382;-89
2023/12/06 03:56:05;;;;;;;1.30;1.20;;;;;;;5.54;53.25;101155.66;5017049;28;20482;-88
2023/12/06 03:58:30;;;;;;;0.40;0.40;;;;;;;5.62;53.30;101147.16;5016866;28;20418;-88
2023/12/06 04:00:59;;;;;;;0.40;0.40;;;;;;;5.59;53.28;101151.81;5033013;28;20905;-88
2023/12/06 04:03:25;;;;;;;0.38;0.38;;;;;;;5.61;53.36;101147.25;5016411;28;20382;-88
2023/12/06 04:05:50;;;;;;;0.20;0.20;;;;;;;5.59;53.25;101144.75;5031583;28;20409;-88
2023/12/06 04:08:16;;;;;;;0.25;0.25;;;;;;;5.62;52.97;101144.50;5031389;28;20403;-88
2023/12/06 04:10:42;;;;;;;0.40;0.40;;;;;;;5.66;52.83;101148.53;5030939;28;20835;-89
2023/12/06 04:13:07;;;;;;;0.40;0.40;;;;;;;5.68;52.79;101149.25;5014586;28;20379;-90
2023/12/06 04:15:33;;;;;;;0.43;0.43;;;;;;;5.64;52.87;101139.97;5030956;28;20406;-90
2023/12/06 04:17:59;;;;;;;0.90;0.90;;;;;;;5.62;52.98;101141.88;5030908;28;20774;-90
2023/12/06 04:20:24;;;;;;;0.17;0.17;;;;;;;5.60;52.78;101145.59;5030779;28;20394;-91
2023/12/06 04:22:50;;;;;;;0.40;0.40;;;;;;;5.62;53.02;101147.16;5031164;28;20394;-91
2023/12/06 04:25:16;;;;;;;0.40;0.40;;;;;;;5.64;52.75;101149.66;5030860;28;20390;-92
2023/12/06 04:27:42;;;;;;;1.47;1.37;;;;;;;5.63;52.88;101155.84;5030936;28;20920;-91
2023/12/06 04:30:10;;;;;;;0.45;0.45;;;;;;;5.70;53.05;101152.59;5029268;28;20856;-92
2023/12/06 04:32:36;;;;;;;0.35;0.35;;;;;;;5.69;53.20;101145.66;5029074;28;20402;-90
2023/12/06 04:35:02;;;;;;;0.20;0.20;;;;;;;5.66;52.97;101143.28;5029427;28;20391;-92
2023/12/06 04:37:28;;;;;;;1.20;0.63;;;;;;;5.60;53.33;101140.31;5029363;28;20769;-91
2023/12/06 04:39:54;;;;;;;1.27;1.20;;;;;;;5.59;53.51;101150.00;5030825;28;20940;-92
2023/12/06 04:42:20;;;;;;;0.50;0.50;;;;;;;5.59;53.41;101138.66;5013757;28;20391;-92
2023/12/06 04:44:46;;;;;;;0.30;0.30;;;;;;;5.54;53.36;101142.50;5036242;28;20501;-92
2023/12/06 04:47:12;;;;;;;0.57;0.57;;;;;;;5.41;53.81;101143.66;5037527;28;20406;-88
2023/12/06 04:49:37;;;;;;;1.00;0.90;;;;;;;5.50;53.59;101161.28;5034434;28;20406;-87
2023/12/06 04:52:03;;;;;;;0.35;0.35;;;;;;;5.36;53.68;101152.72;5035824;28;20417;-88
2023/12/06 04:54:29;;;;;;;7.38;1.42;;;;;;;5.31;53.83;101154.06;5029200;28;20473;-89
2023/12/06 04:56:55;;;;;;;0.90;0.90;;;;;;;5.19;54.36;101155.91;5055618;28;20540;-89
2023/12/06 04:59:21;;;;;;;1.50;1.00;;;;;;;5.21;54.17;101158.41;5055900;28;20417;-90
2023/12/06 05:01:46;;;;;;;0.70;0.70;;;;;;;5.27;54.13;101148.22;5043107;28;20402;-89
2023/12/06 05:04:12;;;;;;;0.60;0.60;;;;;;;5.41;53.46;101147.09;5050364;28;20406;-91
2023/12/06 05:06:38;;;;;;;0.80;0.50;;;;;;;5.46;53.53;101152.81;5037914;28;20518;-91
2023/12/06 05:09:10;;;;;;;0.40;0.40;;;;;;;5.51;53.95;101152.44;5052575;28;20436;-89
2023/12/06 05:11:36;;;;;;;0.50;0.50;;;;;;;5.47;53.79;101166.78;5022303;28;20888;-90
2023/12/06 05:14:02;;;;;;;0.47;0.47;;;;;;;5.47;53.97;101157.09;5038150;28;20450;-91
2023/12/06 05:16:28;;;;;;;0.20;0.20;;;;;;;5.50;53.97;101146.34;5022410;28;20406;-91
2023/12/06 05:18:54;;;;;;;0.90;0.70;;;;;;;5.46;53.94;101144.13;5044250;28;20448;-90
2023/12/06 05:21:20;;;;;;;0.20;0.20;;;;;;;5.44;53.74;101144.22;5033278;28;20398;-94
2023/12/06 05:23:49;;;;;;;1.77;1.05;;;;;;;5.52;54.15;101154.13;5050068;28;20451;-92
2023/12/06 05:26:15;;;;;;;1.00;0.73;;;;;;;5.55;53.99;101156.50;5180551;22;20431;-88
2023/12/06 05:28:41;;;;;;;0.93;0.80;;;;;;;5.57;53.88;101161.63;5033692;28;20507;-91
2023/12/06 05:31:06;;;;;;;0.60;0.60;;;;;;;5.41;54.15;101156.78;5032441;28;20442;-88
2023/12/06 05:33:32;;;;;;;0.80;0.80;;;;;;;5.39;54.54;101156.91;5028748;28;20408;-88
2023/12/06 05:35:58;;;;;;;0.50;0.50;;;;;;;5.43;54.85;101158.31;5016847;28;20403;-90
2023/12/06 05:38:26;;;;;;;0.57;0.57;;;;;;;5.53;54.60;101166.31;5016443;28;20464;-92
2023/12/06 05:40:55;;;;;;;0.20;0.20;;;;;;;5.61;54.27;101168.31;5032313;28;20392;-88
2023/12/06 05:43:20;;;;;;;1.05;0.75;;;;;;;5.60;54.17;101167.47;5015769;28;20399;-88
2023/12/06 05:45:46;;;;;;;0.68;0.52;;;;;;;5.50;54.37;101167.38;5014553;28;20424;-88
2023/12/06 05:48:12;;;;;;;0.70;0.55;;;;;;;5.60;54.57;101170.09;5014585;28;20764;-89
2023/12/06 05:50:37;;;;;;;1.38;0.77;;;;;;;5.57;54.54;101157.19;5031945;28;20404;-87
2023/12/06 05:53:04;;;;;;;0.30;0.30;;;;;;;5.55;54.36;101161.75;5014075;28;20432;-91
2023/12/06 05:55:30;;;;;;;0.55;0.55;;;;;;;5.47;54.30;101169.44;5018164;28;20918;-90
2023/12/06 05:57:57;;;;;;;0.33;0.33;;;;;;;5.59;54.78;101170.22;5015202;28;20388;-88
2023/12/06 06:00:24;;;;;;;1.00;0.52;;;;;;;5.52;54.51;101169.88;5031982;28;20403;-91
2023/12/06 06:02:52;;;;;;;0.60;0.60;;;;;;;5.27;55.45;101173.69;5018084;28;20388;-92
2023/12/06 06:05:20;;;;;;;1.10;1.10;;;;;;;5.37;55.69;101177.25;5035868;28;20383;-92
2023/12/06 06:07:48;;;;;;;0.40;0.40;;;;;;;5.46;54.95;101173.84;5035603;28;20388;-91
2023/12/06 06:10:16;;;;;;;0.73;0.73;;;;;;;5.32;55.23;101169.72;5033832;28;20411;-92
2023/12/06 06:12:41;;;;;;;0.40;0.40;;;;;;;5.23;55.45;101170.47;5017826;28;20395;-88
2023/12/06 06:15:08;;;;;;;0.50;0.50;;;;;;;5.38;55.69;101165.75;5014332;28;20479;-90
2023/12/06 06:17:34;;;;;;;0.25;0.25;;;;;;;5.50;55.41;101177.06;5013648;28;20431;-87
2023/12/06 06:20:00;;;;;;;0.22;0.22;;;;;;;5.58;55.46;101182.53;5013256;28;20458;-87
2023/12/06 06:22:28;;;;;;;1.00;0.70;;;;;;;5.54;55.15;101175.84;5013385;28;20392;-87
2023/12/06 06:24:54;;;;;;;0.47;0.47;;;;;;;5.49;55.56;101172.75;5011374;28;20458;-87
2023/12/06 06:27:19;;;;;;;0.50;0.50;;;;;;;5.40;55.48;101169.09;5012989;28;20403;-87
2023/12/06 06:29:46;;;;;;;1.30;1.10;;;;;;;5.26;56.26;101166.78;5028866;28;20415;-88
2023/12/06 06:32:15;;;;;;;0.55;0.55;;;;;;;5.34;55.92;101166.97;5015226;28;20813;-88
2023/12/06 06:34:41;;;;;;;0.80;0.68;;;;;;;5.34;55.71;101165.16;5030877;28;20458;-88
2023/12/06 06:37:08;;;;;;;0.75;0.70;;;;;;;5.23;56.30;101164.38;5033382;28;20454;-90
2023/12/06 06:39:35;;;;;;;12.70;2.80;;;;;;;5.13;56.83;101161.63;5019407;28;20388;-93
2023/12/06 06:42:02;;;;;;;1.70;0.95;;;;;;;5.28;56.74;101165.69;5019767;28;20403;-87
2023/12/06 06:44:30;;;;;;;1.30;1.23;;;;;;;5.44;56.16;101169.66;5018750;28;20384;-90
2023/12/06 06:46:56;;;;;;;0.63;0.63;;;;;;;5.49;56.27;101163.09;5015980;28;20458;-89
2023/12/06 06:49:21;;;;;;;1.20;1.20;;;;;;;5.46;56.12;101162.50;5015487;28;20400;-89
2023/12/06 06:51:50;;;;;;;1.77;1.15;;;;;;;5.33;56.44;101167.91;5017128;28;20392;-89
2023/12/06 06:54:17;;;;;;;1.15;1.15;;;;;;;5.17;56.74;101166.53;5036630;28;20384;-90
2023/12/06 06:56:42;;;;;;;1.20;0.70;;;;;;;5.17;56.57;101177.06;5025886;28;20474;-88
2023/12/06 06:59:08;;;;;;;1.45;1.35;;;;;;;5.23;57.05;101177.53;5041020;28;20396;-89
2023/12/06 07:01:34;;;;;;;1.00;0.90;;;;;;;5.37;56.51;101185.13;5040693;28;20427;-88
2023/12/06 07:03:59;;;;;;;1.10;1.10;;;;;;;5.40;56.07;101174.34;5018855;28;20428;-90
2023/12/06 07:06:25;;;;;;;0.50;0.50;;;;;;;5.35;56.30;101171.28;5016228;28;20384;-89
2023/12/06 07:08:51;;;;;;;1.37;1.27;;;;;;;5.37;56.30;101185.13;5016714;28;20803;-90
2023/12/06 07:11:16;;;;;;;1.50;1.40;;;;;;;5.27;57.04;101182.38;5028340;28;20376;-86
2023/12/06 07:13:42;;;;;;;1.60;1.50;;;;;;;5.13;57.25;101182.66;5029527;28;20497;-91
2023/12/06 07:16:10;;;;;;;0.80;0.80;;;;;;;4.93;58.23;101185.13;5019359;28;20384;-92
2023/12/06 07:18:36;;;;;;;1.30;1.30;;;;;;;5.01;57.86;101181.03;5031934;28;20392;-87
2023/12/06 07:21:03;;;;;;;0.60;0.60;;;;;;;5.01;57.86;101176.63;5030927;28;20454;-89
2023/12/06 07:23:29;;;;;;;0.52;0.52;;;;;;;4.96;57.50;101170.88;5011393;28;20393;-89
2023/12/06 07:25:55;;;;;;;0.98;0.98;;;;;;;4.90;58.04;101177.47;5014061;28;20420;-90
2023/12/06 07:28:21;;;;;;;0.35;0.35;;;;;;;4.60;59.21;101188.59;5030172;28;20411;-88
2023/12/06 07:30:47;;;;;;;1.98;1.88;;;;;;;4.56;59.26;101180.13;5017605;28;20392;-85
2023/12/06 07:33:12;;;;;;;1.80;1.70;;;;;;;4.64;59.35;101184.75;5041255;28;20396;-89
2023/12/06 07:35:40;;;;;;;0.73;0.73;;;;;;;4.62;59.32;101189.28;5013818;28;20763;-86
2023/12/06 07:38:10;;;;;;;2.30;1.70;;;;;;;4.56;59.72;101195.88;5019170;28;20440;-89
2023/12/06 07:40:47;;;;;;;1.80;1.70;;;;;;;4.53;60.23;101190.00;5018347;28;20390;-88
2023/12/06 07:43:14;;;;;;;0.47;0.47;;;;;;;4.66;60.11;101197.78;5018961;28;20384;-91
2023/12/06 07:45:40;;;;;;;1.60;1.45;;;;;;;4.76;59.57;101204.81;5021177;28;20396;-90
2023/12/06 07:48:05;;;;;;;1.80;1.70;;;;;;;4.78;59.37;101196.81;5017980;28;20407;-88
2023/12/06 07:50:31;;;;;;;0.67;0.67;;;;;;;4.74;59.46;101204.09;5034740;28;20403;-91
2023/12/06 07:52:58;;;;;;;1.17;0.87;;;;;;;4.64;60.20;101203.13;5019946;28;20407;-90
2023/12/06 07:55:27;;;;;;;1.77;1.15;;;;;;;4.76;59.69;101203.97;5020692;28;20892;-90
2023/12/06 07:57:53;;;;;;;1.25;1.10;;;;;;;4.81;59.50;101190.47;5020907;28;20427;-89
2023/12/06 08:00:19;;;;;;;1.57;1.20;;;;;;;4.76;59.63;101198.72;5033303;28;20392;-89
2023/12/06 08:02:45;;;;;;;0.85;0.85;;;;;;;4.77;59.82;101190.75;5033210;28;20419;-89
2023/12/06 08:05:19;;;;;;;0.45;0.45;;;;;;;4.82;59.21;101189.53;5015240;28;20882;-89
2023/12/06 08:07:45;;;;;;;0.88;0.88;;;;;;;4.74;59.96;101192.78;5013347;28;20388;-91
2023/12/06 08:10:13;;;;;;;0.60;0.60;;;;;;;4.66;60.32;101188.09;5018130;28;20408;-91
2023/12/06 08:23:21;;;;;;;1.42;1.33;;;;;;;4.82;60.11;101192.16;5038622;27;3243908;-94
2023/12/06 08:25:49;;;;;;;0.70;0.70;;;;;;;4.88;60.18;101203.03;5131258;28;20988;-94
2023/12/06 08:28:16;;;;;;;0.60;0.60;;;;;;;4.90;59.84;101195.84;5116747;28;20371;-91
2023/12/06 08:30:45;;;;;;;0.70;0.70;;;;;;;4.87;59.86;101206.59;5118475;28;20402;-92
2023/12/06 08:33:13;;;;;;;0.55;0.55;;;;;;;5.02;59.55;101203.72;5117365;28;20406;-93
2023/12/06 08:35:43;;;;;;;1.30;1.20;;;;;;;5.16;59.52;101206.09;5095082;28;21771;-90
2023/12/06 08:38:11;;;;;;;0.90;0.70;;;;;;;5.31;58.80;101206.63;5111751;28;20391;-90
2023/12/06 08:40:37;;;;;;;0.60;0.60;;;;;;;5.38;58.59;101207.81;5111624;28;20414;-91
2023/12/06 08:43:06;;;;;;;0.30;0.30;;;;;;;5.29;58.64;101211.19;5116187;28;20425;-90
2023/12/06 08:45:33;;;;;;;0.67;0.63;;;;;;;5.29;58.66;101213.81;5113414;28;20920;-91
2023/12/06 08:48:01;;;;;;;1.02;1.02;;;;;;;5.16;59.00;101206.09;5122285;28;20400;-90
2023/12/06 08:50:27;;;;;;;0.35;0.35;;;;;;;5.20;59.22;101196.16;5092946;28;20408;-87
2023/12/06 08:52:53;;;;;;;0.70;0.70;;;;;;;5.37;58.87;101190.38;5115170;28;20461;-88
2023/12/06 08:55:19;;;;;;;0.30;0.30;;;;;;;5.44;58.51;101195.97;5111554;28;20388;-87
2023/12/06 08:57:45;;;;;;;0.40;0.40;;;;;;;5.37;58.63;101179.88;5098233;28;20384;-90
2023/12/06 09:00:12;;;;;;;1.45;1.35;;;;;;;5.49;58.55;101192.03;5098121;28;20391;-93
2023/12/06 09:02:39;;;;;;;2.20;2.00;;;;;;;5.51;58.57;101192.72;5089657;28;20925;-88
2023/12/06 09:05:11;;;;;;;0.17;0.17;;;;;;;5.60;57.90;101190.28;5063502;28;20945;-84
2023/12/06 09:07:37;;;;;;;0.30;0.30;;;;;;;5.71;58.14;101190.25;5043361;28;20402;-84
2023/12/06 09:10:04;;;;;;;0.65;0.60;;;;;;;5.73;57.83;101183.91;5043240;28;20478;-85
2023/12/06 09:12:32;;;;;;;2.00;0.90;;;;;;;5.75;57.49;101181.16;5025559;28;20441;-86
2023/12/06 09:15:00;;;;;;;0.50;0.50;;;;;;;5.69;57.87;101173.75;5041797;28;21253;-87
2023/12/06 09:17:31;;;;;;;0.90;0.90;;;;;;;5.71;57.91;101171.84;5040174;28;20389;-84
2023/12/06 09:19:56;;;;;;;0.50;0.50;;;;;;;5.79;57.86;101179.94;5069086;28;20922;-85
2023/12/06 09:22:22;;;;;;;0.20;0.20;;;;;;;5.87;58.10;101166.97;5043416;28;20500;-84
2023/12/06 09:24:48;;;;;;;0.20;0.20;;;;;;;5.87;57.88;101158.22;5051319;28;20404;-86
2023/12/06 09:27:15;;;;;;;1.48;1.40;;;;;;;5.88;57.99;101160.75;5019078;28;20515;-83
2023/12/06 09:29:42;;;;;;;1.20;0.95;;;;;;;5.90;57.91;101163.25;5034485;28;20427;-84
2023/12/06 09:32:07;;;;;;;0.57;0.57;;;;;;;5.93;58.11;101160.38;5051642;28;20469;-85
2023/12/06 09:34:36;;;;;;;3.40;1.20;;;;;;;5.97;57.84;101155.72;5052804;28;20379;-84
2023/12/06 09:37:03;;;;;;;0.30;0.30;;;;;;;6.02;57.90;101154.34;5093046;28;20376;-86
2023/12/06 09:39:29;;;;;;;0.25;0.25;;;;;;;5.98;57.75;101144.22;5103122;28;20379;-83
2023/12/06 09:41:55;;;;;;;0.60;0.60;;;;;;;6.02;58.14;101137.75;5117221;28;20410;-83
2023/12/06 09:44:20;;;;;;;0.40;0.40;;;;;;;6.05;57.70;101150.63;5096489;28;20391;-88
2023/12/06 09:46:48;;;;;;;2.50;0.70;;;;;;;6.01;57.71;101147.41;5096900;28;20378;-84
2023/12/06 09:49:15;;;;;;;0.70;0.70;;;;;;;6.00;57.99;101135.25;5080138;28;20529;-87
2023/12/06 09:51:41;;;;;;;0.40;0.40;;;;;;;6.02;57.83;101133.31;5113848;28;20395;-87
2023/12/06 09:54:07;;;;;;;0.50;0.50;;;;;;;6.05;57.83;101119.03;5095633;28;20375;-85
2023/12/06 09:56:35;;;;;;;0.70;0.70;;;;;;;6.05;57.65;101125.16;5095438;28;20380;-85
2023/12/06 09:59:01;;;;;;;0.30;0.30;;;;;;;6.09;58.04;101131.81;5094036;28;20506;-86
2023/12/06 10:01:29;;;;;;;0.30;0.30;;;;;;;6.08;57.63;101124.06;5095852;28;20376;-87
2023/12/06 10:03:58;;;;;;;1.50;0.52;;;;;;;6.80;58.63;101117.81;5115172;28;20845;-88
2023/12/06 10:06:24;;;;;;;0.40;0.40;;;;;;;7.66;59.46;101115.34;5094873;28;20382;-89
2023/12/06 10:08:54;;;;;;;0.60;0.60;;;;;;;7.74;60.71;101112.03;5096248;28;20387;-87
2023/12/06 10:11:26;;;;;;;1.50;1.40;;;;;;;7.52;61.12;101107.03;5096895;28;21013;-86
2023/12/06 10:13:54;;;;;;;0.30;0.30;;;;;;;7.91;62.22;101112.25;5086957;28;20388;-89
2023/12/06 10:16:21;;;;;;;0.90;0.90;;;;;;;7.60;62.97;101108.00;5098913;28;20383;-88
2023/12/06 10:18:52;;;;;;;0.55;0.55;;;;;;;8.24;63.15;101101.16;5079565;28;20419;-85
2023/12/06 10:21:19;;;;;;;1.40;1.30;;;;;;;9.23;64.26;101104.91;5078057;28;20389;-85
2023/12/06 10:24:00;;;;;;;1.40;0.70;;;;;;;8.92;61.78;101096.53;5097259;28;20375;-86
2023/12/06 10:26:29;;;;;;;0.35;0.35;;;;;;;8.38;61.69;101094.56;5098659;28;20387;-85
2023/12/06 10:28:55;;;;;;;0.68;0.68;;;;;;;8.10;61.26;101088.41;5099178;28;20391;-88
2023/12/06 10:31:21;;;;;;;2.00;1.90;;;;;;;7.87;61.29;101084.47;5118365;28;20427;-84
2023/12/06 10:33:54;;;;;;;0.63;0.63;;;;;;;7.71;60.78;101085.09;5096582;28;20399;-85
2023/12/06 10:36:21;;;;;;;0.70;0.70;;;;;;;7.63;60.44;101091.91;5111998;28;20402;-84
2023/12/06 10:38:50;;;;;;;1.48;0.98;;;;;;;7.53;60.02;101080.53;5113494;28;20481;-84
2023/12/06 10:41:19;;;;;;;3.10;1.60;;;;;;;7.47;59.81;101070.50;5116490;28;20383;-85
2023/12/06 10:43:45;;;;;;;0.77;0.77;;;;;;;7.29;59.74;101070.38;5095665;28;20463;-85
2023/12/06 10:46:11;;;;;;;1.55;1.45;;;;;;;6.93;59.01;101074.56;5113266;28;20431;-82
2023/12/06 10:48:39;;;;;;;1.73;1.63;;;;;;;6.77;59.22;101069.81;5103377;28;20407;-85
2023/12/06 10:51:05;;;;;;;1.60;1.17;;;;;;;6.73;59.25;101063.16;5102433;28;20411;-83
2023/12/06 10:53:32;;;;;;;1.67;1.60;;;;;;;6.68;59.38;101064.41;5136084;28;20371;-86
2023/12/06 10:56:01;;;;;;;4.32;1.23;;;;;;;6.65;59.35;101063.84;5115962;28;20371;-84
2023/12/06 10:58:26;;;;;;;4.25;1.27;;;;;;;6.66;58.96;101063.72;5105385;28;20850;-83
2023/12/06 11:00:58;;;;;;;1.33;1.23;;;;;;;6.72;58.74;101072.00;5113111;28;20414;-83
2023/12/06 11:03:24;;;;;;;0.40;0.40;;;;;;;6.76;58.83;101070.81;5097083;28;20387;-85
2023/12/06 11:05:54;;;;;;;0.80;0.80;;;;;;;6.80;58.59;101070.38;5088538;27;20814;-86
2023/12/06 11:08:25;;;;;;;0.25;0.25;;;;;;;6.90;58.47;101067.78;5115999;27;20385;-83
2023/12/06 11:11:09;;;;;;;0.65;0.65;;;;;;;6.98;58.45;101062.63;5117191;27;20760;-84
2023/12/06 11:13:59;;;;;;;0.83;0.83;;;;;;;6.95;58.31;101057.66;5115551;27;20892;-84
2023/12/06 11:16:52;;;;;;;0.70;0.70;;;;;;;7.05;58.04;101055.84;5117118;27;20468;-83
2023/12/06 11:19:19;;;;;;;0.50;0.50;;;;;;;7.11;57.69;101053.63;5114383;27;20814;-82
2023/12/06 11:21:45;;;;;;;0.52;0.52;;;;;;;7.03;57.78;101055.13;5115234;27;20405;-85
2023/12/06 11:24:11;;;;;;;0.50;0.50;;;;;;;7.01;57.91;101049.19;5114980;27;20469;-85
2023/12/06 11:26:37;;;;;;;1.07;0.93;;;;;;;7.01;57.88;101058.91;5101800;28;20391;-84
2023/12/06 11:29:04;;;;;;;0.60;0.60;;;;;;;6.96;57.96;101051.38;5095467;28;20402;-83
2023/12/06 11:31:37;;;;;;;3.05;2.85;;;;;;;6.92;57.68;101043.91;5094667;28;20496;-83
2023/12/06 11:34:09;;;;;;;2.03;1.88;;;;;;;6.93;58.15;101038.47;5093345;28;20383;-84
2023/12/06 11:36:35;;;;;;;1.40;0.88;;;;;;;6.85;57.90;101038.34;5093941;28;20428;-84
2023/12/06 11:39:17;;;;;;;2.92;2.72;;;;;;;6.94;57.91;101044.59;5095122;28;20376;-84
2023/12/06 11:41:53;;;;;;;1.38;1.27;;;;;;;6.99;57.68;101037.94;5113618;28;20854;-86
2023/12/06 11:44:20;;;;;;;0.85;0.82;;;;;;;7.03;57.60;101034.06;5095387;28;20418;-84